Time;durP1;ratioP1;P1;durP2;ratioP2;P2;SDS_P1;SDS_P2;PMS_P1;PMS_P2;Temp;Humidity;BMP_temperature;BMP_pressure;BME280_temperature;BME280_humidity;BME280_pressure;Samples;Min_cycle;Max_cycle;Signal;HPM_P1;HPM_P2
2022/02/10 00:16:10;;;;;;;2.73;1.30;;;5.50;99.90;;;;;;5014570;28;20494;-71
2022/02/10 00:21:23;;;;;;;0.70;0.40;;;5.40;99.90;;;;;;5014686;28;20511;-71
2022/02/10 00:34:40;;;;;;;1.00;0.80;;;5.20;99.90;;;;;;5015126;28;20433;-71
2022/02/10 00:42:18;;;;;;;1.73;1.63;;;5.10;99.90;;;;;;5014627;28;20419;-71
2022/02/10 00:44:43;;;;;;;0.70;0.50;;;5.00;99.90;;;;;;5014472;28;20426;-71
2022/02/10 00:47:09;;;;;;;1.57;1.47;;;5.00;99.90;;;;;;5014729;28;20183;-71
2022/02/10 00:49:35;;;;;;;0.77;0.60;;;5.00;99.90;;;;;;4996632;28;20226;-71
2022/02/10 00:52:04;;;;;;;0.70;0.60;;;4.90;99.90;;;;;;4996838;28;20238;-71
2022/02/10 00:54:29;;;;;;;0.93;0.60;;;4.90;99.90;;;;;;5013933;28;20427;-71
2022/02/10 00:56:58;;;;;;;0.70;0.50;;;4.90;99.90;;;;;;4996816;28;20458;-71
2022/02/10 01:31:47;;;;;;;0.70;0.50;;;4.50;99.90;;;;;;5013653;28;20812;-71
2022/02/10 01:34:13;;;;;;;1.00;0.90;;;4.50;99.90;;;;;;5013423;28;20426;-71
2022/02/10 01:36:39;;;;;;;0.70;0.60;;;4.50;99.90;;;;;;5013384;28;20752;-71
2022/02/10 01:39:05;;;;;;;0.70;0.60;;;4.40;99.90;;;;;;5013389;28;20251;-71
2022/02/10 01:58:07;;;;;;;1.27;1.10;;;4.30;99.90;;;;;;5013289;28;20442;-71
2022/02/10 02:03:25;;;;;;;0.70;0.50;;;4.30;99.90;;;;;;5012912;28;20438;-71
2022/02/10 02:06:00;;;;;;;0.70;0.50;;;4.30;99.90;;;;;;4995168;28;20431;-71
2022/02/10 02:08:28;;;;;;;0.93;0.53;;;4.30;99.90;;;;;;5012808;28;20425;-71
2022/02/10 02:10:54;;;;;;;1.83;0.87;;;4.20;99.90;;;;;;4995475;28;21138;-71
2022/02/10 02:13:20;;;;;;;1.17;1.07;;;4.20;99.90;;;;;;5012688;28;20428;-71
2022/02/10 02:15:46;;;;;;;0.70;0.50;;;4.10;99.90;;;;;;5012673;28;20250;-71
2022/02/10 02:18:11;;;;;;;0.70;0.63;;;4.10;99.90;;;;;;5012732;28;20419;-71
2022/02/10 02:20:37;;;;;;;0.70;0.50;;;4.00;99.90;;;;;;5012681;28;20661;-71
2022/02/10 02:23:04;;;;;;;0.70;0.50;;;4.00;99.90;;;;;;5012463;28;20273;-71
2022/02/10 02:25:29;;;;;;;0.70;0.50;;;4.00;99.90;;;;;;5012817;28;20179;-71
2022/02/10 02:27:57;;;;;;;1.60;0.97;;;4.00;99.90;;;;;;4995104;28;21104;-71
2022/02/10 02:30:27;;;;;;;0.70;0.40;;;4.00;99.90;;;;;;4995097;28;20195;-71
2022/02/10 02:38:31;;;;;;;0.70;0.50;;;4.00;99.90;;;;;;5011810;28;20469;-71
2022/02/10 03:06:18;;;;;;;0.70;0.50;;;3.70;99.90;;;;;;5012231;28;20504;-71
2022/02/10 03:08:49;;;;;;;0.70;0.50;;;3.70;99.90;;;;;;5012054;28;20428;-71
2022/02/10 03:11:16;;;;;;;2.13;1.57;;;3.70;99.90;;;;;;5010883;28;20431;-71
2022/02/10 03:14:19;;;;;;;0.70;0.50;;;3.70;99.90;;;;;;4993578;28;20419;-71
2022/02/10 03:16:55;;;;;;;0.70;0.50;;;3.70;99.90;;;;;;5009589;28;20469;-71
2022/02/10 04:18:23;;;;;;;0.70;0.50;;;3.90;99.90;;;;;;5015204;28;20970;-71
2022/02/10 04:26:13;;;;;;;0.70;0.50;;;4.00;99.90;;;;;;5014764;28;20434;-71
2022/02/10 04:29:02;;;;;;;0.70;0.50;;;4.00;99.90;;;;;;5014989;28;20427;-71
2022/02/10 04:58:43;;;;;;;0.70;0.70;;;3.90;99.90;;;;;;5014611;28;20418;-70
2022/02/10 05:19:48;;;;;;;1.00;0.90;;;3.90;99.90;;;;;;5013748;28;20470;-71
2022/02/10 05:35:33;;;;;;;0.70;0.50;;;4.20;99.90;;;;;;5013733;28;20431;-70
2022/02/10 05:38:06;;;;;;;0.70;0.50;;;4.30;99.90;;;;;;5013160;28;20425;-70
2022/02/10 05:56:53;;;;;;;0.70;0.50;;;5.00;99.90;;;;;;5012253;28;20553;-70
2022/02/10 06:00:47;;;;;;;0.70;0.50;;;5.10;99.90;;;;;;5013738;28;20196;-70
2022/02/10 06:47:03;;;;;;;0.70;0.50;;;6.10;99.90;;;;;;5015927;28;20430;-71
2022/02/10 06:52:14;;;;;;;1.10;1.00;;;6.30;99.90;;;;;;5012898;28;20460;-72
2022/02/10 07:10:14;;;;;;;0.70;0.40;;;6.70;99.90;;;;;;5012275;28;20493;-71
2022/02/10 07:13:05;;;;;;;0.73;0.60;;;6.70;99.90;;;;;;5011435;28;20435;-70
2022/02/10 07:53:26;;;;;;;1.43;0.70;;;7.40;99.90;;;;;;5018598;28;20403;-71
2022/02/10 07:56:24;;;;;;;0.70;0.70;;;7.40;99.90;;;;;;5018657;28;20975;-72
2022/02/10 08:26:39;;;;;;;0.80;0.63;;;7.70;99.90;;;;;;5018280;28;20426;-71
2022/02/10 08:56:11;;;;;;;0.70;0.50;;;8.70;99.90;;;;;;5023213;28;20582;-72
2022/02/10 09:04:58;;;;;;;0.80;0.77;;;10.00;99.90;;;;;;5026901;28;20442;-71
2022/02/10 09:20:58;;;;;;;0.80;0.70;;;10.20;99.90;;;;;;5025196;28;20446;-71
2022/02/10 09:24:28;;;;;;;0.90;0.77;;;10.30;99.90;;;;;;5018161;28;20546;-72
2022/02/10 09:58:42;;;;;;;1.00;0.73;;;12.20;99.90;;;;;;5018960;28;20431;-72
2022/02/10 10:04:09;;;;;;;6.03;2.03;;;12.10;99.90;;;;;;5015390;28;20446;-72
2022/02/10 10:07:03;;;;;;;3.50;2.90;;;12.10;99.90;;;;;;5020576;28;20495;-71
2022/02/10 10:16:00;;;;;;;1.13;1.03;;;11.90;99.90;;;;;;4917108;29;20439;-72
2022/02/10 10:18:30;;;;;;;1.20;1.10;;;11.80;99.90;;;;;;4998619;28;20470;-71
2022/02/10 10:21:10;;;;;;;6.03;2.27;;;11.80;99.90;;;;;;5016861;28;20443;-71
2022/02/10 10:23:58;;;;;;;1.97;1.43;;;11.80;99.90;;;;;;5026524;28;20464;-71
2022/02/10 10:57:09;;;;;;;0.93;0.87;;;12.60;99.90;;;;;;5024730;28;20470;-71
2022/02/10 11:39:12;;;;;;;1.87;1.33;;;11.80;99.90;;;;;;5011570;28;20427;-71
2022/02/10 11:41:53;;;;;;;2.07;1.80;;;11.70;99.90;;;;;;4994200;28;20427;-71
2022/02/10 11:44:45;;;;;;;0.70;0.50;;;11.70;99.90;;;;;;5011362;28;20651;-71
2022/02/10 13:23:16;;;;;;;0.70;0.57;;;10.00;99.90;;;;;;5023038;28;20476;-71
2022/02/10 14:11:17;;;;;;;0.80;0.60;;;9.80;99.90;;;;;;5013369;28;20446;-71
2022/02/10 14:13:39;;;;;;;0.70;0.60;;;9.80;99.90;;;;;;4993640;28;20960;-72
2022/02/10 14:18:40;;;;;;;0.80;0.70;;;9.80;99.90;;;;;;5019764;28;20442;-71
2022/02/10 14:21:17;;;;;;;1.00;0.60;;;9.80;99.90;;;;;;5013183;28;20418;-71
2022/02/10 14:26:30;;;;;;;0.70;0.50;;;9.80;99.90;;;;;;5013205;28;20491;-71
2022/02/10 14:28:56;;;;;;;5.90;0.70;;;9.90;99.90;;;;;;5019660;28;20415;-71
2022/02/10 14:31:21;;;;;;;0.70;0.50;;;9.80;99.90;;;;;;5018192;28;20506;-71
2022/02/10 14:33:49;;;;;;;1.27;1.17;;;9.90;99.90;;;;;;5003321;28;21005;-71
2022/02/10 14:36:24;;;;;;;0.70;0.47;;;9.80;99.90;;;;;;5012105;28;20279;-71
2022/02/10 14:38:59;;;;;;;1.37;0.70;;;9.80;99.90;;;;;;5018711;28;20418;-72
2022/02/10 15:15:08;;;;;;;0.70;0.50;;;10.40;99.90;;;;;;5006644;28;20769;-71
2022/02/10 16:11:00;;;;;;;1.00;0.70;;;9.50;99.90;;;;;;5015254;28;20453;-71
2022/02/10 16:16:50;;;;;;;2.90;2.80;;;9.40;99.90;;;;;;5000754;28;20504;-71
2022/02/10 16:18:52;;;;;;;1.47;0.70;;;9.40;99.90;;;;;;5015007;28;20513;-71
2022/02/10 16:22:25;;;;;;;0.70;0.50;;;9.30;99.90;;;;;;5015027;28;20458;-71
2022/02/10 16:24:27;;;;;;;0.70;0.60;;;9.30;99.90;;;;;;5011472;28;20551;-71
2022/02/10 16:26:55;;;;;;;1.00;0.93;;;9.30;99.90;;;;;;5014710;28;20429;-71
2022/02/10 16:29:23;;;;;;;0.70;0.50;;;9.30;99.90;;;;;;5014104;28;20443;-71
2022/02/10 16:31:49;;;;;;;0.70;0.50;;;9.30;99.90;;;;;;5014675;28;20469;-71
2022/02/10 16:34:14;;;;;;;0.70;0.50;;;9.30;99.90;;;;;;5014596;28;20431;-71
2022/02/10 16:36:40;;;;;;;0.97;0.83;;;9.20;99.90;;;;;;5014594;28;20455;-71
2022/02/10 16:39:07;;;;;;;0.70;0.50;;;9.20;99.90;;;;;;5014778;28;20295;-71
2022/02/10 16:41:32;;;;;;;1.10;0.80;;;9.20;99.90;;;;;;4997144;28;20538;-71
2022/02/10 16:43:58;;;;;;;0.70;0.50;;;9.20;99.90;;;;;;5015994;28;20435;-71
2022/02/10 16:46:24;;;;;;;0.80;0.70;;;9.20;99.90;;;;;;5023602;28;21012;-70
2022/02/10 16:48:51;;;;;;;0.70;0.43;;;9.10;99.90;;;;;;5014723;28;20552;-71
2022/02/10 16:51:18;;;;;;;0.70;0.50;;;9.10;99.90;;;;;;5014428;28;20458;-71
2022/02/10 16:53:50;;;;;;;0.70;0.50;;;9.10;99.90;;;;;;4996428;28;20463;-71
2022/02/10 16:56:21;;;;;;;0.70;0.50;;;9.10;99.90;;;;;;5013511;28;20459;-71
2022/02/10 16:58:58;;;;;;;0.70;0.70;;;9.10;99.90;;;;;;5015013;28;20419;-71
2022/02/10 17:01:42;;;;;;;0.70;0.43;;;9.20;99.90;;;;;;5024417;28;20524;-71
2022/02/10 17:16:09;;;;;;;1.47;1.37;;;9.20;99.90;;;;;;5015645;28;20430;-71
2022/02/10 17:25:38;;;;;;;2.03;1.37;;;9.10;99.90;;;;;;5016990;28;20266;-71
2022/02/10 17:28:06;;;;;;;1.13;1.00;;;9.10;99.90;;;;;;5013906;28;20498;-71
2022/02/10 17:30:50;;;;;;;1.30;1.20;;;9.00;99.90;;;;;;5013908;28;20440;-71
2022/02/10 17:33:23;;;;;;;0.70;0.60;;;9.00;99.90;;;;;;5013862;28;20518;-71
2022/02/10 17:36:04;;;;;;;1.13;0.63;;;9.00;99.90;;;;;;5012301;28;20962;-71
2022/02/10 17:46:52;;;;;;;1.77;0.93;;;9.00;99.90;;;;;;5013360;28;20439;-71
2022/02/10 17:54:30;;;;;;;0.70;0.50;;;8.90;99.90;;;;;;5018283;28;20427;-71
2022/02/10 17:56:56;;;;;;;0.70;0.70;;;8.90;99.90;;;;;;5013800;28;20500;-71
2022/02/10 17:59:22;;;;;;;0.70;0.57;;;8.80;99.90;;;;;;5013320;28;20196;-71
2022/02/10 18:01:49;;;;;;;4.30;1.87;;;8.80;99.90;;;;;;5013242;28;20263;-71
2022/02/10 18:04:17;;;;;;;2.20;2.10;;;8.80;99.90;;;;;;5012966;28;20442;-71
2022/02/10 18:06:46;;;;;;;0.77;0.67;;;8.80;99.90;;;;;;5013144;28;20434;-71
2022/02/10 18:14:47;;;;;;;1.90;1.80;;;8.80;99.90;;;;;;4990221;28;20842;-71
2022/02/10 18:17:22;;;;;;;0.70;0.60;;;8.80;99.90;;;;;;5033011;28;20462;-71
2022/02/10 18:19:53;;;;;;;1.30;1.00;;;8.80;99.90;;;;;;5032688;28;20440;-71
2022/02/10 18:27:39;;;;;;;1.30;0.80;;;8.80;99.90;;;;;;5012723;28;20789;-71
2022/02/10 19:10:19;;;;;;;0.70;0.50;;;8.60;99.90;;;;;;5012148;28;20450;-72
2022/02/10 19:12:47;;;;;;;1.03;0.93;;;8.50;99.90;;;;;;4994576;28;20423;-71
2022/02/10 19:15:20;;;;;;;0.80;0.70;;;8.50;99.90;;;;;;4994291;28;20422;-71
2022/02/10 19:17:46;;;;;;;0.93;0.70;;;8.40;99.90;;;;;;5012368;28;20455;-71
2022/02/10 19:20:13;;;;;;;0.70;0.43;;;8.40;99.90;;;;;;5010836;28;20438;-71
2022/02/10 19:22:40;;;;;;;1.10;0.93;;;8.40;99.90;;;;;;5010757;28;20415;-73
2022/02/10 19:25:08;;;;;;;1.43;1.27;;;8.30;99.90;;;;;;5014989;28;20423;-71
2022/02/10 19:27:35;;;;;;;1.37;1.27;;;8.30;99.90;;;;;;5011596;28;20458;-71
2022/02/10 19:30:02;;;;;;;0.70;0.43;;;8.30;99.90;;;;;;5011896;28;20443;-71
2022/02/10 19:32:30;;;;;;;2.30;2.10;;;8.20;99.90;;;;;;5011292;28;20419;-71
2022/02/10 19:34:58;;;;;;;0.70;0.50;;;8.20;99.90;;;;;;5011094;28;20502;-71
2022/02/10 19:37:24;;;;;;;0.70;0.50;;;8.20;99.90;;;;;;5011579;28;20541;-71
2022/02/10 19:39:56;;;;;;;0.70;0.50;;;8.10;99.90;;;;;;5012007;28;20935;-71
2022/02/10 19:42:22;;;;;;;0.70;0.50;;;8.10;99.90;;;;;;5012117;28;20392;-71
2022/02/10 19:44:48;;;;;;;1.27;1.00;;;8.00;99.90;;;;;;5011382;28;20418;-71
2022/02/10 19:47:14;;;;;;;0.70;0.60;;;8.00;99.90;;;;;;4994212;28;20176;-71
2022/02/10 19:49:42;;;;;;;0.70;0.50;;;8.00;99.90;;;;;;5011694;28;20238;-71
2022/02/10 19:52:08;;;;;;;0.70;0.50;;;7.90;99.90;;;;;;5011870;28;20758;-71
2022/02/10 19:54:39;;;;;;;0.70;0.50;;;7.80;99.90;;;;;;4993835;28;20449;-73
2022/02/10 19:57:05;;;;;;;0.70;0.50;;;7.80;99.90;;;;;;4994041;28;20700;-71
2022/02/10 19:59:32;;;;;;;0.70;0.47;;;7.70;99.90;;;;;;5011574;28;20530;-71
2022/02/10 20:01:58;;;;;;;0.70;0.50;;;7.60;99.90;;;;;;5006898;28;20422;-72
2022/02/10 20:04:25;;;;;;;0.70;0.50;;;7.50;99.90;;;;;;4992987;28;20443;-72
2022/02/10 20:06:52;;;;;;;0.70;0.50;;;7.40;99.90;;;;;;5008920;28;20688;-73
2022/02/10 20:09:19;;;;;;;0.80;0.60;;;7.30;99.90;;;;;;5010293;28;20447;-72
2022/02/10 20:11:47;;;;;;;0.70;0.50;;;7.30;99.90;;;;;;5010208;28;20432;-72
2022/02/10 20:14:13;;;;;;;0.70;0.50;;;7.20;99.90;;;;;;5011150;28;20438;-72
2022/02/10 20:16:39;;;;;;;1.37;1.27;;;7.10;99.90;;;;;;5011206;28;20446;-72
2022/02/10 20:19:08;;;;;;;0.70;0.50;;;7.10;99.90;;;;;;5011428;28;20257;-70
2022/02/10 20:21:34;;;;;;;0.70;0.50;;;7.00;99.90;;;;;;4993148;28;20160;-70
2022/02/10 20:24:00;;;;;;;0.70;0.50;;;7.00;99.90;;;;;;5011125;28;21158;-70
2022/02/10 20:26:25;;;;;;;0.70;0.50;;;7.00;99.90;;;;;;5011134;28;20427;-72
2022/02/10 20:28:51;;;;;;;0.70;0.50;;;6.90;99.90;;;;;;5011430;28;20177;-73
2022/02/10 20:31:16;;;;;;;0.70;0.50;;;6.90;99.90;;;;;;5011724;28;20223;-70
2022/02/10 20:33:43;;;;;;;0.70;0.50;;;6.90;99.90;;;;;;5014260;28;20176;-70
2022/02/10 20:36:09;;;;;;;1.33;0.97;;;6.90;99.90;;;;;;5014316;28;20303;-72
2022/02/10 20:38:41;;;;;;;0.70;0.50;;;6.90;99.90;;;;;;5013273;28;20940;-72
2022/02/10 20:41:11;;;;;;;0.70;0.50;;;6.90;99.90;;;;;;4997253;28;20439;-71
2022/02/10 20:43:38;;;;;;;0.70;0.50;;;6.90;99.90;;;;;;5014580;28;20415;-72
2022/02/10 20:46:07;;;;;;;0.70;0.50;;;6.80;99.90;;;;;;5014539;28;20415;-72
2022/02/10 20:48:36;;;;;;;0.70;0.50;;;6.80;99.90;;;;;;5014807;28;20422;-72
2022/02/10 20:51:05;;;;;;;0.70;0.60;;;6.80;99.90;;;;;;5014587;28;20489;-70
2022/02/10 20:53:31;;;;;;;0.70;0.50;;;6.80;99.90;;;;;;5013978;28;20434;-70
2022/02/10 20:56:02;;;;;;;0.70;0.50;;;6.80;99.90;;;;;;5014046;28;20423;-70
2022/02/10 20:58:30;;;;;;;0.80;0.50;;;6.80;99.90;;;;;;5014508;28;20168;-71
2022/02/10 21:00:59;;;;;;;0.70;0.50;;;6.70;99.90;;;;;;4998557;28;20445;-70
2022/02/10 21:03:28;;;;;;;0.70;0.50;;;6.70;99.90;;;;;;5013971;28;20431;-70
2022/02/10 21:06:05;;;;;;;0.80;0.70;;;6.70;99.90;;;;;;5014233;28;20478;-72
2022/02/10 21:11:01;;;;;;;0.70;0.50;;;6.70;99.90;;;;;;5014107;28;20988;-72
2022/02/10 21:13:29;;;;;;;0.70;0.43;;;6.60;99.90;;;;;;5013918;28;20473;-71
2022/02/10 21:15:55;;;;;;;0.70;0.50;;;6.60;99.90;;;;;;5005324;28;20473;-71
2022/02/10 21:18:20;;;;;;;0.80;0.80;;;6.60;99.90;;;;;;5014027;28;20427;-72
2022/02/10 21:20:48;;;;;;;0.70;0.50;;;6.50;99.90;;;;;;5013782;28;20467;-72
2022/02/10 21:23:20;;;;;;;0.70;0.50;;;6.50;99.90;;;;;;5013302;28;20168;-71
2022/02/10 21:25:48;;;;;;;0.70;0.50;;;6.40;99.90;;;;;;5013500;28;20412;-72
2022/02/10 21:28:20;;;;;;;0.70;0.50;;;6.40;99.90;;;;;;4996498;28;20530;-71
2022/02/10 21:30:49;;;;;;;0.70;0.50;;;6.40;99.90;;;;;;5013687;28;20443;-71
2022/02/10 21:33:57;;;;;;;0.70;0.50;;;6.40;99.90;;;;;;5013590;28;20462;-71
2022/02/10 21:36:43;;;;;;;0.70;0.43;;;6.30;99.90;;;;;;5012750;28;20466;-70
2022/02/10 21:39:04;;;;;;;0.70;0.40;;;6.20;99.90;;;;;;5012377;28;20419;-70
2022/02/10 22:08:45;;;;;;;0.70;0.60;;;6.00;99.90;;;;;;5013603;28;20431;-71
2022/02/10 22:16:48;;;;;;;0.90;0.90;;;5.90;99.90;;;;;;5017972;28;20519;-72
2022/02/10 22:19:22;;;;;;;0.70;0.50;;;6.00;99.90;;;;;;5017140;28;20917;-72
2022/02/10 22:21:54;;;;;;;0.70;0.50;;;5.90;99.90;;;;;;5012724;28;20437;-72
2022/02/10 22:24:21;;;;;;;0.70;0.50;;;5.80;99.90;;;;;;5011941;28;20419;-72
2022/02/10 22:26:49;;;;;;;0.70;0.50;;;5.80;99.90;;;;;;5012443;28;20450;-72
2022/02/10 22:29:27;;;;;;;1.47;1.30;;;5.80;99.90;;;;;;4994960;28;20478;-71
2022/02/10 22:32:03;;;;;;;0.70;0.50;;;5.80;99.90;;;;;;5012485;28;20490;-70
2022/02/10 22:34:37;;;;;;;4.40;2.00;;;5.80;99.90;;;;;;5012462;28;20782;-70
2022/02/10 22:37:07;;;;;;;0.70;0.50;;;5.80;99.90;;;;;;5011243;28;20467;-71
2022/02/10 22:39:40;;;;;;;0.70;0.50;;;5.80;99.90;;;;;;5012514;28;20442;-72
2022/02/10 22:42:06;;;;;;;0.80;0.63;;;5.80;99.90;;;;;;4995062;28;20419;-72
2022/02/10 22:44:33;;;;;;;0.70;0.40;;;5.80;99.90;;;;;;5012092;28;20419;-72
2022/02/10 22:47:01;;;;;;;0.70;0.50;;;5.80;99.90;;;;;;5012303;28;20916;-72
2022/02/10 22:49:26;;;;;;;0.70;0.43;;;5.80;99.90;;;;;;5012627;28;20447;-72
2022/02/10 22:51:52;;;;;;;0.70;0.47;;;5.70;99.90;;;;;;4994828;28;20513;-71
2022/02/10 22:54:18;;;;;;;0.70;0.50;;;5.70;99.90;;;;;;4994698;28;20591;-72
2022/02/10 22:56:45;;;;;;;0.70;0.50;;;5.70;99.90;;;;;;5011984;28;20196;-71
2022/02/10 22:59:12;;;;;;;0.70;0.50;;;5.70;99.90;;;;;;5011656;28;20203;-71
2022/02/10 23:01:39;;;;;;;0.70;0.50;;;5.60;99.90;;;;;;5017040;28;20427;-71
2022/02/10 23:04:05;;;;;;;0.90;0.60;;;5.70;99.90;;;;;;5018579;28;20431;-71
2022/02/10 23:06:31;;;;;;;0.70;0.50;;;5.60;99.90;;;;;;5011978;28;20426;-70
2022/02/10 23:08:58;;;;;;;0.70;0.50;;;5.60;99.90;;;;;;5012276;28;20419;-71
2022/02/10 23:11:28;;;;;;;0.70;0.50;;;5.50;99.90;;;;;;5012288;28;20517;-71
2022/02/10 23:13:57;;;;;;;0.70;0.50;;;5.50;99.90;;;;;;5012416;28;20404;-70
2022/02/10 23:16:23;;;;;;;0.70;0.50;;;5.40;99.90;;;;;;5013037;28;20469;-71
2022/02/10 23:18:49;;;;;;;0.70;0.50;;;5.30;99.90;;;;;;5014284;28;20423;-70
2022/02/10 23:21:16;;;;;;;0.70;0.40;;;5.20;99.90;;;;;;5011696;28;20963;-71
2022/02/10 23:23:44;;;;;;;0.70;0.50;;;5.10;99.90;;;;;;5011997;28;20545;-71
2022/02/10 23:26:12;;;;;;;0.70;0.50;;;5.00;99.90;;;;;;5011431;28;20415;-72
2022/02/10 23:28:41;;;;;;;0.70;0.50;;;4.90;99.90;;;;;;4994167;28;20737;-71
2022/02/10 23:31:10;;;;;;;0.70;0.40;;;4.80;99.90;;;;;;5012340;28;20481;-72
2022/02/10 23:33:39;;;;;;;0.70;0.50;;;4.80;99.90;;;;;;5021698;28;20510;-71
2022/02/10 23:38:49;;;;;;;0.70;0.50;;;4.70;99.90;;;;;;5012192;28;20427;-70
2022/02/10 23:43:41;;;;;;;0.80;0.80;;;4.60;99.90;;;;;;5011563;28;20458;-72
2022/02/10 23:46:07;;;;;;;0.70;0.50;;;4.50;99.90;;;;;;5011615;28;20423;-71
2022/02/10 23:48:34;;;;;;;0.70;0.40;;;4.50;99.90;;;;;;5011683;28;20420;-71
2022/02/10 23:51:00;;;;;;;0.80;0.70;;;4.50;99.90;;;;;;5011680;28;20897;-71
2022/02/10 23:53:27;;;;;;;0.70;0.40;;;4.50;99.90;;;;;;5011729;28;20423;-70
2022/02/10 23:55:53;;;;;;;0.70;0.40;;;4.50;99.90;;;;;;4993923;28;20419;-71
2022/02/10 23:59:09;;;;;;;0.70;0.50;;;4.50;99.90;;;;;;5011522;28;20466;-71
